createdAt,value
2019-05-12T00:01:31.515Z,84.50
2019-05-12T00:03:58.138Z,84.40
2019-05-12T00:06:24.394Z,84.42
2019-05-12T00:08:50.855Z,84.55
2019-05-12T00:11:17.980Z,84.67
2019-05-12T00:13:44.429Z,84.66
2019-05-12T00:16:10.703Z,84.56
2019-05-12T00:18:37.771Z,84.47
2019-05-12T00:21:04.128Z,84.75
2019-05-12T00:23:31.396Z,84.44
2019-05-12T00:25:58.777Z,84.25
2019-05-12T00:28:25.246Z,84.29
2019-05-12T00:30:51.709Z,84.62
2019-05-12T00:33:18.169Z,84.67
2019-05-12T00:35:45.486Z,84.74
2019-05-12T00:38:11.796Z,84.60
2019-05-12T00:40:39.455Z,84.84
2019-05-12T00:43:08.470Z,85.01
2019-05-12T00:45:34.147Z,84.80
2019-05-12T00:48:00.581Z,84.86
2019-05-12T00:50:28.952Z,84.87
2019-05-12T00:52:54.824Z,84.91
2019-05-12T00:55:21.093Z,84.76
2019-05-12T00:57:48.489Z,84.57
2019-05-12T01:00:17.887Z,84.67
2019-05-12T01:02:44.149Z,84.38
2019-05-12T01:05:10.600Z,84.34
2019-05-12T01:07:38.196Z,84.09
2019-05-12T01:10:05.226Z,84.55
2019-05-12T01:12:31.403Z,84.53
2019-05-12T01:14:58.529Z,84.29
2019-05-12T01:17:24.917Z,84.28
2019-05-12T01:19:51.250Z,84.34
2019-05-12T01:22:18.711Z,84.07
2019-05-12T01:24:45.218Z,84.13
2019-05-12T01:27:11.333Z,83.89
2019-05-12T01:29:38.565Z,84.00
2019-05-12T01:32:23.385Z,83.59
2019-05-12T01:34:49.649Z,83.61
2019-05-12T01:37:24.805Z,83.49
2019-05-12T01:39:52.402Z,83.63
2019-05-12T01:42:18.681Z,83.49
2019-05-12T01:44:45.027Z,83.44
2019-05-12T01:47:11.308Z,83.50
2019-05-12T01:49:38.215Z,83.63
2019-05-12T01:52:04.494Z,83.76
2019-05-12T01:54:30.772Z,83.72
2019-05-12T01:56:58.619Z,83.53
2019-05-12T01:59:25.083Z,83.19
2019-05-12T02:01:51.247Z,83.21
2019-05-12T02:04:18.208Z,83.01
2019-05-12T02:06:44.542Z,82.95
2019-05-12T02:09:30.606Z,82.88
2019-05-12T02:11:58.218Z,83.03
2019-05-12T02:14:24.723Z,82.88
2019-05-12T02:16:51.050Z,83.03
2019-05-12T02:19:17.938Z,82.93
2019-05-12T02:21:45.206Z,83.09
2019-05-12T02:24:23.284Z,83.22
2019-05-12T02:26:39.744Z,83.31
2019-05-12T02:29:07.874Z,83.23
2019-05-12T02:31:34.361Z,83.33
2019-05-12T02:34:00.546Z,83.40
2019-05-12T02:36:26.808Z,83.49
2019-05-12T02:38:56.002Z,83.45
2019-05-12T02:41:21.252Z,83.34
2019-05-12T02:43:47.424Z,83.27
2019-05-12T02:46:15.511Z,83.07
2019-05-12T02:48:44.795Z,83.25
2019-05-12T02:51:10.454Z,83.41
2019-05-12T02:53:36.844Z,83.45
2019-05-12T02:56:04.969Z,83.39
2019-05-12T02:58:34.265Z,83.37
2019-05-12T03:01:05.115Z,83.41
2019-05-12T03:03:30.138Z,83.22
2019-05-12T03:05:57.441Z,83.18
2019-05-12T03:08:25.698Z,83.28
2019-05-12T03:10:54.873Z,83.54
2019-05-12T03:13:20.635Z,83.60
2019-05-12T03:15:46.850Z,83.50
2019-05-12T03:18:14.687Z,83.64
2019-05-12T03:20:41.089Z,83.61
2019-05-12T03:23:07.309Z,83.45
2019-05-12T03:25:35.702Z,83.47
2019-05-12T03:28:04.901Z,83.54
2019-05-12T03:30:30.070Z,83.47
2019-05-12T03:32:57.948Z,83.51
2019-05-12T03:35:32.669Z,83.45
2019-05-12T03:37:54.754Z,83.45
2019-05-12T03:40:20.499Z,83.51
2019-05-12T03:42:46.624Z,83.42
2019-05-12T03:45:15.026Z,83.56
2019-05-12T03:47:45.190Z,83.55
2019-05-12T03:50:09.587Z,83.68
2019-05-12T03:52:35.693Z,83.77
2019-05-12T03:55:05.610Z,83.71
2019-05-12T03:57:34.584Z,83.77
2019-05-12T04:00:00.124Z,83.83
2019-05-12T04:02:26.385Z,83.89
2019-05-12T04:04:55.431Z,83.94
2019-05-12T04:07:20.739Z,83.95
2019-05-12T04:09:46.956Z,83.92
2019-05-12T04:12:14.760Z,83.87
2019-05-12T04:14:41.169Z,83.88
2019-05-12T04:17:07.326Z,83.86
2019-05-12T04:19:34.417Z,83.85
2019-05-12T04:22:00.904Z,83.95
2019-05-12T04:24:27.063Z,83.90
2019-05-12T04:26:55.163Z,83.77
2019-05-12T04:29:24.839Z,83.83
2019-05-12T04:31:49.568Z,83.85
2019-05-12T04:34:19.126Z,83.77
2019-05-12T04:36:44.885Z,83.66
2019-05-12T04:39:14.771Z,83.59
2019-05-12T04:41:40.508Z,83.76
2019-05-12T04:44:06.745Z,83.77
2019-05-12T04:46:34.690Z,83.71
2019-05-12T04:49:00.998Z,83.65
2019-05-12T04:51:27.216Z,83.51
2019-05-12T04:53:54.912Z,83.60
2019-05-12T04:56:24.746Z,83.68
2019-05-12T04:58:49.560Z,83.53
2019-05-12T05:01:15.906Z,83.53
2019-05-12T05:03:44.320Z,83.55
2019-05-12T05:06:10.239Z,83.46
2019-05-12T05:08:36.466Z,83.44
2019-05-12T05:11:04.048Z,83.48
2019-05-12T05:13:35.515Z,83.32
2019-05-12T05:15:59.872Z,83.21
2019-05-12T05:18:26.221Z,83.20
2019-05-12T05:20:54.161Z,83.19
2019-05-12T05:23:20.499Z,82.77
2019-05-12T05:25:46.656Z,82.58
2019-05-12T05:28:14.671Z,82.31
2019-05-12T05:30:41.090Z,82.24
2019-05-12T05:33:07.310Z,82.42
2019-05-12T05:35:37.344Z,82.46
2019-05-12T05:38:04.504Z,82.64
2019-05-12T05:40:30.468Z,82.41
2019-05-12T05:42:56.762Z,82.92
2019-05-12T05:45:25.887Z,82.76
2019-05-12T05:47:50.982Z,82.79
2019-05-12T05:50:18.374Z,82.78
2019-05-12T05:52:45.314Z,82.15
2019-05-12T05:55:19.924Z,82.23
2019-05-12T05:57:39.877Z,82.57
2019-05-12T06:00:16.277Z,82.56
2019-05-12T06:02:40.125Z,82.63
2019-05-12T06:05:04.910Z,82.40
2019-05-12T06:07:35.761Z,82.23
2019-05-12T06:10:00.323Z,82.56
2019-05-12T06:12:26.540Z,82.37
2019-05-12T06:14:55.333Z,82.67
2019-05-12T06:17:20.765Z,82.29
2019-05-12T06:19:46.928Z,82.18
2019-05-12T06:22:15.129Z,81.99
2019-05-12T06:24:44.001Z,82.08
2019-05-12T06:27:16.253Z,81.96
2019-05-12T06:29:37.502Z,81.66
2019-05-12T06:32:06.272Z,82.06
2019-05-12T06:34:34.154Z,82.11
2019-05-12T06:37:05.075Z,82.43
2019-05-12T06:39:28.539Z,82.49
2019-05-12T06:42:01.864Z,82.21
2019-05-12T06:44:24.134Z,82.36
2019-05-12T06:46:53.564Z,82.73
2019-05-12T06:49:18.404Z,82.55
2019-05-12T06:51:44.626Z,82.85
2019-05-12T06:54:12.644Z,81.98
2019-05-12T06:56:38.813Z,82.28
2019-05-12T06:59:09.780Z,82.12
2019-05-12T07:01:33.939Z,82.26
2019-05-12T07:04:00.525Z,82.17
2019-05-12T07:06:28.246Z,81.97
2019-05-12T07:09:05.355Z,82.04
2019-05-12T07:11:24.333Z,82.10
2019-05-12T07:14:01.289Z,82.19
2019-05-12T07:16:23.156Z,82.35
2019-05-12T07:18:47.279Z,82.39
2019-05-12T07:21:15.531Z,82.46
2019-05-12T07:23:44.464Z,82.35
2019-05-12T07:26:17.228Z,81.70
2019-05-12T07:28:40.490Z,81.72
2019-05-12T07:31:07.037Z,82.06
2019-05-12T07:33:41.343Z,81.14
2019-05-12T07:36:06.213Z,81.74
2019-05-12T07:38:31.488Z,81.49
2019-05-12T07:41:00.802Z,80.92
2019-05-12T07:43:27.691Z,81.25
2019-05-12T07:46:02.171Z,81.34
2019-05-12T07:48:25.270Z,81.19
2019-05-12T07:50:58.427Z,80.76
2019-05-12T07:53:20.041Z,80.83
2019-05-12T07:55:49.383Z,80.85
2019-05-12T07:58:18.782Z,81.12
2019-05-12T08:00:44.388Z,81.15
2019-05-12T08:03:16.334Z,80.79
2019-05-12T08:05:39.938Z,80.44
2019-05-12T08:08:09.264Z,80.38
2019-05-12T08:10:34.550Z,80.42
2019-05-12T08:13:00.967Z,80.83
2019-05-12T08:15:28.235Z,80.71
2019-05-12T08:17:58.376Z,80.66
2019-05-12T08:20:23.928Z,80.85
2019-05-12T08:22:50.230Z,80.61
2019-05-12T08:25:18.753Z,80.40
2019-05-12T08:27:49.433Z,80.52
2019-05-12T08:30:13.796Z,80.62
2019-05-12T08:32:40.427Z,80.61
2019-05-12T08:35:08.186Z,80.81
2019-05-12T08:37:35.124Z,80.77
2019-05-12T08:40:07.542Z,80.17
2019-05-12T08:42:34.319Z,79.69
2019-05-12T08:45:00.262Z,79.84
2019-05-12T08:47:28.894Z,79.80
2019-05-12T08:49:58.375Z,79.87
2019-05-12T08:52:23.590Z,79.39
2019-05-12T08:54:50.126Z,80.08
2019-05-12T08:57:16.393Z,80.25
2019-05-12T08:59:44.168Z,79.28
2019-05-12T09:02:10.937Z,79.41
2019-05-12T09:04:37.495Z,79.20
2019-05-12T09:07:04.472Z,79.59
2019-05-12T09:09:30.808Z,79.74
2019-05-12T09:11:57.017Z,79.34
2019-05-12T09:14:23.876Z,78.87
2019-05-12T09:16:53.652Z,78.43
2019-05-12T09:19:23.921Z,77.67
2019-05-12T09:21:46.464Z,77.97
2019-05-12T09:24:13.633Z,78.24
2019-05-12T09:26:40.744Z,77.51
2019-05-12T09:29:07.517Z,77.10
2019-05-12T09:31:33.888Z,76.97
2019-05-12T09:34:05.470Z,77.48
2019-05-12T09:36:28.242Z,77.26
2019-05-12T09:39:01.562Z,76.83
2019-05-12T09:41:24.018Z,77.02
2019-05-12T09:43:50.619Z,76.86
2019-05-12T09:46:16.819Z,77.50
2019-05-12T09:48:45.637Z,77.11
2019-05-12T09:51:13.329Z,77.11
2019-05-12T09:53:42.843Z,77.10
2019-05-12T09:56:07.720Z,76.78
2019-05-12T09:58:33.966Z,76.74
2019-05-12T10:01:00.351Z,76.35
2019-05-12T10:03:30.911Z,75.03
2019-05-12T10:05:55.700Z,74.96
2019-05-12T10:08:23.981Z,74.42
2019-05-12T10:10:50.100Z,74.08
2019-05-12T10:13:20.387Z,74.33
2019-05-12T10:15:45.206Z,74.03
2019-05-12T10:18:14.152Z,73.07
2019-05-12T10:20:40.104Z,72.13
2019-05-12T10:23:10.380Z,72.31
2019-05-12T10:25:34.473Z,72.04
2019-05-12T10:28:03.001Z,71.60
2019-05-12T10:30:28.876Z,70.70
2019-05-12T10:32:55.095Z,69.87
2019-05-12T10:35:24.029Z,70.49
2019-05-12T10:37:49.307Z,69.39
2019-05-12T10:40:15.719Z,68.17
2019-05-12T10:42:46.044Z,68.08
2019-05-12T10:45:16.981Z,65.33
2019-05-12T10:47:39.482Z,64.00
2019-05-12T10:50:06.602Z,63.79
2019-05-12T10:52:35.071Z,63.39
2019-05-12T10:55:00.856Z,62.93
2019-05-12T10:57:27.111Z,61.70
2019-05-12T10:59:53.433Z,62.06
2019-05-12T11:02:20.555Z,62.80
2019-05-12T11:04:47.925Z,63.91
2019-05-12T11:07:14.100Z,62.22
2019-05-12T11:09:40.366Z,59.36
2019-05-12T11:12:06.642Z,58.94
2019-05-12T11:14:34.152Z,57.32
2019-05-12T11:17:07.548Z,59.82
2019-05-12T11:19:30.683Z,61.00
2019-05-12T11:21:56.799Z,60.73
2019-05-12T11:24:23.885Z,61.00
2019-05-12T11:26:50.842Z,59.23
2019-05-12T11:29:17.064Z,56.36
2019-05-12T11:31:44.106Z,53.11
2019-05-12T11:34:10.615Z,52.65
2019-05-12T11:36:36.716Z,54.37
2019-05-12T11:39:05.459Z,52.81
2019-05-12T11:41:33.349Z,52.86
2019-05-12T11:43:59.790Z,50.39
2019-05-12T11:46:26.024Z,48.77
2019-05-12T11:48:53.829Z,49.88
2019-05-12T11:51:20.891Z,51.27
2019-05-12T11:53:48.595Z,51.39
2019-05-12T11:56:14.784Z,49.02
2019-05-12T11:58:46.209Z,50.18
2019-05-12T12:01:10.937Z,49.54
2019-05-12T12:03:37.129Z,49.14
2019-05-12T12:06:03.249Z,46.81
2019-05-12T12:08:35.697Z,46.81
2019-05-12T12:10:57.662Z,45.92
2019-05-12T12:13:29.796Z,42.93
2019-05-12T12:15:51.983Z,41.67
2019-05-12T12:18:18.275Z,40.15
2019-05-12T12:20:45.889Z,42.02
2019-05-12T12:23:13.952Z,42.42
2019-05-12T12:25:42.953Z,43.56
2019-05-12T12:28:08.534Z,43.13
2019-05-12T12:30:34.750Z,41.57
2019-05-12T12:33:04.081Z,41.41
2019-05-12T12:35:30.071Z,40.74
2019-05-12T12:37:56.234Z,40.51
2019-05-12T12:40:22.390Z,42.00
2019-05-12T12:42:48.651Z,40.76
2019-05-12T12:45:23.755Z,41.87
2019-05-12T12:47:58.873Z,39.42
2019-05-12T12:50:28.657Z,38.06
2019-05-12T12:52:53.533Z,35.54
2019-05-12T12:55:19.660Z,37.25
2019-05-12T12:57:50.583Z,36.70
2019-05-12T13:00:28.504Z,38.13
2019-05-12T13:02:47.419Z,37.65
2019-05-12T13:05:10.718Z,37.88
2019-05-12T13:07:36.931Z,37.92
2019-05-12T13:10:09.324Z,37.21
2019-05-12T13:12:35.612Z,36.83
2019-05-12T13:15:00.622Z,36.95
2019-05-12T13:17:35.315Z,36.61
2019-05-12T13:19:58.631Z,36.84
2019-05-12T13:22:24.514Z,37.68
2019-05-12T13:24:53.051Z,34.83
2019-05-12T13:27:23.953Z,34.94
2019-05-12T13:29:47.099Z,34.01
2019-05-12T13:32:13.880Z,33.35
2019-05-12T13:34:40.323Z,31.68
2019-05-12T13:37:09.497Z,30.31
2019-05-12T13:39:35.681Z,30.22
2019-05-12T13:42:03.239Z,30.15
2019-05-12T13:44:30.312Z,30.44
2019-05-12T13:46:58.913Z,31.15
2019-05-12T13:49:25.294Z,32.87
2019-05-12T13:51:53.719Z,33.37
2019-05-12T13:54:24.906Z,32.47
2019-05-12T13:56:48.400Z,32.29
2019-05-12T13:59:20.574Z,33.89
2019-05-12T14:01:45.758Z,34.33
2019-05-12T14:04:11.232Z,34.90
2019-05-12T14:06:38.115Z,33.62
2019-05-12T14:09:05.692Z,33.87
2019-05-12T14:11:34.239Z,33.55
2019-05-12T14:14:00.185Z,32.25
2019-05-12T14:16:26.585Z,32.70
2019-05-12T14:18:57.047Z,33.80
2019-05-12T14:21:24.315Z,32.05
2019-05-12T14:23:50.187Z,29.64
2019-05-12T14:26:16.452Z,29.32
2019-05-12T14:28:45.686Z,29.47
2019-05-12T14:31:24.454Z,29.78
2019-05-12T14:33:39.557Z,32.11
2019-05-12T14:36:05.921Z,31.38
2019-05-12T14:38:33.830Z,33.25
2019-05-12T14:41:01.225Z,34.50
2019-05-12T14:43:28.406Z,35.62
2019-05-12T14:45:54.684Z,33.55
2019-05-12T14:48:20.873Z,33.79
2019-05-12T14:50:47.364Z,33.17
2019-05-12T14:53:14.432Z,32.17
2019-05-12T14:55:41.071Z,32.34
2019-05-12T14:58:09.407Z,31.43
2019-05-12T15:00:35.688Z,30.83
2019-05-12T15:03:05.503Z,29.90
2019-05-12T15:05:30.479Z,28.90
2019-05-12T15:08:00.223Z,29.90
2019-05-12T15:10:24.904Z,31.53
2019-05-12T15:12:51.112Z,33.18
2019-05-12T15:15:20.595Z,34.22
2019-05-12T15:17:45.733Z,35.73
2019-05-12T15:20:13.764Z,35.94
2019-05-12T15:22:42.880Z,35.78
2019-05-12T15:25:08.584Z,36.34
2019-05-12T15:27:44.351Z,37.09
2019-05-12T15:30:19.021Z,37.85
2019-05-12T15:32:35.213Z,38.92
2019-05-12T15:35:01.699Z,39.22
2019-05-12T15:37:34.191Z,38.95
2019-05-12T15:39:57.556Z,39.68
2019-05-12T15:42:23.783Z,39.01
2019-05-12T15:44:50.022Z,39.87
2019-05-12T15:47:16.147Z,40.18
2019-05-12T15:49:44.224Z,40.12
2019-05-12T15:52:10.421Z,40.56
2019-05-12T15:54:45.616Z,41.26
2019-05-12T15:57:04.733Z,41.42
2019-05-12T15:59:30.962Z,42.07
2019-05-12T16:02:08.589Z,42.67
2019-05-12T16:04:25.187Z,42.87
2019-05-12T16:06:55.416Z,42.68
2019-05-12T16:09:19.492Z,42.96
2019-05-12T16:11:45.652Z,43.88
2019-05-12T16:14:11.891Z,44.00
2019-05-12T16:16:42.474Z,43.45
2019-05-12T16:19:06.176Z,43.26
2019-05-12T16:21:32.329Z,43.69
2019-05-12T16:24:04.874Z,44.14
2019-05-12T16:26:26.871Z,44.22
2019-05-12T16:29:01.068Z,44.07
2019-05-12T16:31:23.109Z,44.97
2019-05-12T16:33:52.853Z,44.72
2019-05-12T16:36:17.495Z,44.26
2019-05-12T16:38:44.555Z,44.26
2019-05-12T16:41:11.142Z,44.52
2019-05-12T16:43:37.413Z,45.24
2019-05-12T16:46:04.380Z,45.46
2019-05-12T16:48:33.923Z,46.12
2019-05-12T16:51:00.003Z,45.66
2019-05-12T16:53:27.854Z,45.44
2019-05-12T16:55:54.410Z,45.53
2019-05-12T16:58:26.090Z,45.72
2019-05-12T17:00:49.720Z,45.89
2019-05-12T17:03:18.304Z,46.16
2019-05-12T17:05:49.981Z,46.35
2019-05-12T17:08:14.288Z,46.60
2019-05-12T17:10:40.633Z,46.72
2019-05-12T17:13:12.626Z,47.07
2019-05-12T17:15:34.941Z,47.49
2019-05-12T17:18:03.809Z,47.28
2019-05-12T17:20:29.452Z,47.77
2019-05-12T17:22:59.792Z,47.70
2019-05-12T17:25:24.028Z,47.90
2019-05-12T17:27:51.166Z,48.11
2019-05-12T17:30:17.837Z,48.52
2019-05-12T17:32:56.976Z,48.56
2019-05-12T17:35:14.623Z,48.36
2019-05-12T17:37:41.539Z,48.29
2019-05-12T17:40:09.291Z,48.62
2019-05-12T17:42:37.136Z,48.51
2019-05-12T17:45:09.419Z,48.60
2019-05-12T17:47:32.504Z,48.48
2019-05-12T17:50:00.416Z,48.78
2019-05-12T17:52:26.836Z,48.81
2019-05-12T17:54:57.941Z,49.18
2019-05-12T17:57:23.098Z,49.32
2019-05-12T17:59:49.283Z,49.48
2019-05-12T18:02:16.968Z,49.66
2019-05-12T18:04:43.827Z,49.81
2019-05-12T18:07:19.120Z,49.87
2019-05-12T18:09:39.463Z,50.13
2019-05-12T18:12:05.738Z,49.95
2019-05-12T18:14:44.956Z,50.16
2019-05-12T18:17:03.972Z,50.35
2019-05-12T18:19:28.233Z,50.51
2019-05-12T18:22:02.773Z,50.68
2019-05-12T18:24:24.106Z,50.58
2019-05-12T18:26:56.550Z,50.58
2019-05-12T18:29:18.519Z,50.30
2019-05-12T18:31:44.682Z,50.53
2019-05-12T18:34:11.057Z,50.60
2019-05-12T18:36:37.294Z,50.79
2019-05-12T18:39:11.656Z,50.81
2019-05-12T18:41:34.437Z,50.80
2019-05-12T18:44:01.167Z,50.83
2019-05-12T18:46:27.390Z,50.97
2019-05-12T18:49:02.903Z,51.12
2019-05-12T18:51:23.812Z,50.85
2019-05-12T18:53:50.005Z,50.86
2019-05-12T18:56:21.619Z,50.65
2019-05-12T18:58:44.597Z,50.87
2019-05-12T19:01:10.886Z,50.73
2019-05-12T19:03:46.764Z,50.99
2019-05-12T19:06:05.410Z,50.94
2019-05-12T19:08:31.646Z,50.65
2019-05-12T19:10:58.040Z,50.50
2019-05-12T19:13:24.708Z,50.61
2019-05-12T19:15:52.617Z,50.69
2019-05-12T19:18:24.487Z,50.65
2019-05-12T19:20:48.167Z,50.75
2019-05-12T19:23:14.663Z,50.99
2019-05-12T19:25:43.226Z,50.79
2019-05-12T19:28:10.597Z,50.86
2019-05-12T19:30:37.262Z,51.01
2019-05-12T19:33:08.490Z,50.67
2019-05-12T19:35:34.183Z,50.71
2019-05-12T19:38:01.983Z,50.99
2019-05-12T19:40:29.472Z,50.88
2019-05-12T19:43:03.110Z,50.94
2019-05-12T19:45:24.877Z,50.82
2019-05-12T19:47:53.388Z,51.02
2019-05-12T19:50:19.489Z,51.05
2019-05-12T19:52:45.816Z,51.25
2019-05-12T19:55:14.096Z,51.30
2019-05-12T19:57:40.561Z,51.27
2019-05-12T20:00:07.629Z,51.37
2019-05-12T20:02:35.089Z,51.52
2019-05-12T20:05:04.389Z,51.71
2019-05-12T20:07:30.552Z,52.01
2019-05-12T20:10:00.464Z,52.04
2019-05-12T20:12:25.144Z,52.22
2019-05-12T20:14:56.619Z,51.91
2019-05-12T20:17:19.526Z,52.03
2019-05-12T20:19:45.686Z,52.12
2019-05-12T20:22:13.816Z,52.38
2019-05-12T20:24:40.037Z,52.28
2019-05-12T20:27:10.607Z,52.55
2019-05-12T20:29:35.327Z,52.55
2019-05-12T20:32:04.458Z,52.67
2019-05-12T20:34:44.979Z,52.62
2019-05-12T20:36:59.095Z,52.74
2019-05-12T20:39:26.423Z,53.02
2019-05-12T20:41:54.768Z,53.27
2019-05-12T20:44:23.778Z,53.31
2019-05-12T20:46:50.594Z,53.37
2019-05-12T20:49:20.206Z,53.36
2019-05-12T20:51:48.223Z,53.44
2019-05-12T20:54:17.936Z,53.56
2019-05-12T20:56:43.437Z,53.69
2019-05-12T20:59:13.883Z,53.82
2019-05-12T21:01:37.947Z,54.02
2019-05-12T21:04:07.470Z,53.91
2019-05-12T21:06:41.331Z,54.14
2019-05-12T21:09:00.813Z,54.35
2019-05-12T21:11:27.152Z,54.21
2019-05-12T21:13:54.573Z,54.39
2019-05-12T21:16:30.890Z,54.61
2019-05-12T21:18:55.933Z,54.65
2019-05-12T21:21:17.641Z,54.89
2019-05-12T21:23:45.599Z,55.05
2019-05-12T21:26:12.037Z,55.08
2019-05-12T21:28:46.074Z,55.20
2019-05-12T21:31:06.442Z,55.41
2019-05-12T21:33:39.897Z,55.47
2019-05-12T21:36:00.754Z,55.84
2019-05-12T21:38:29.775Z,55.82
2019-05-12T21:40:56.194Z,56.14
2019-05-12T21:43:22.400Z,56.30
2019-05-12T21:45:48.601Z,56.49
2019-05-12T21:48:23.375Z,56.69
2019-05-12T21:50:44.264Z,56.92
2019-05-12T21:53:19.210Z,57.39
2019-05-12T21:55:38.763Z,57.38
2019-05-12T21:58:10.454Z,57.56
2019-05-12T22:00:40.299Z,57.78
2019-05-12T22:03:13.062Z,57.94
2019-05-12T22:05:50.499Z,58.07
2019-05-12T22:08:07.009Z,58.34
2019-05-12T22:10:34.847Z,58.18
2019-05-12T22:13:09.017Z,58.42
2019-05-12T22:15:29.759Z,58.75
2019-05-12T22:17:58.848Z,59.00
2019-05-12T22:20:24.946Z,59.08
2019-05-12T22:22:51.137Z,59.08
2019-05-12T22:25:17.583Z,59.44
2019-05-12T22:27:44.954Z,59.52
2019-05-12T22:30:13.365Z,59.61
2019-05-12T22:32:39.377Z,59.76
2019-05-12T22:35:05.952Z,59.86
2019-05-12T22:37:34.977Z,60.04
2019-05-12T22:40:00.163Z,60.52
2019-05-12T22:42:26.586Z,60.74
2019-05-12T22:45:01.259Z,60.91
2019-05-12T22:47:20.928Z,60.96
2019-05-12T22:49:52.090Z,61.39
2019-05-12T22:52:17.410Z,61.58
2019-05-12T22:54:48.953Z,61.77
2019-05-12T22:57:13.185Z,62.01
2019-05-12T22:59:40.605Z,62.28
2019-05-12T23:02:07.544Z,62.57
2019-05-12T23:04:35.817Z,63.12
2019-05-12T23:07:01.908Z,63.46
2019-05-12T23:09:30.080Z,63.90
2019-05-12T23:11:56.121Z,64.00
2019-05-12T23:14:24.871Z,64.02
2019-05-12T23:16:50.468Z,64.00
2019-05-12T23:19:16.719Z,64.10
2019-05-12T23:21:43.891Z,64.04
2019-05-12T23:24:10.306Z,64.09
2019-05-12T23:26:41.855Z,63.90
2019-05-12T23:29:04.605Z,64.39
2019-05-12T23:31:30.672Z,64.53
2019-05-12T23:33:56.880Z,64.68
2019-05-12T23:36:35.236Z,64.85
2019-05-12T23:39:00.597Z,64.82
2019-05-12T23:41:20.209Z,64.82
2019-05-12T23:43:46.432Z,64.95
2019-05-12T23:46:12.520Z,65.12
2019-05-12T23:48:38.730Z,65.24
2019-05-12T23:51:04.917Z,65.55
2019-05-12T23:53:33.667Z,65.65
2019-05-12T23:55:59.356Z,65.86
2019-05-12T23:58:25.659Z,65.92
